Time;durP1;ratioP1;P1;durP2;ratioP2;P2;SDS_P1;SDS_P2;PMS_P1;PMS_P2;Temp;Humidity;BMP_temperature;BMP_pressure;BME280_temperature;BME280_humidity;BME280_pressure;Samples;Min_cycle;Max_cycle;Signal;HPM_P1;HPM_P2
2024/02/08 00:00:57;;;;;;;16.75;10.50;;;;;;;2.01;100.00;100401.00;10373362;28;20038;-67
2024/02/08 00:05:58;;;;;;;16.65;9.10;;;;;;;1.93;100.00;100410.75;10372406;28;20061;-66
2024/02/08 00:10:58;;;;;;;10.88;6.57;;;;;;;1.86;100.00;100413.22;10373597;28;20054;-67
2024/02/08 00:15:58;;;;;;;19.92;9.95;;;;;;;1.73;100.00;100418.94;10404624;28;20052;-66
2024/02/08 00:20:59;;;;;;;29.65;11.43;;;;;;;1.67;100.00;100411.53;10373213;28;20363;-67
2024/02/08 00:25:59;;;;;;;20.88;13.20;;;;;;;1.76;100.00;100401.78;10355081;28;20030;-68
2024/02/08 00:30:59;;;;;;;13.88;11.35;;;;;;;1.85;100.00;100388.34;10354801;28;20442;-66
2024/02/08 00:36:03;;;;;;;23.95;10.65;;;;;;;1.83;100.00;100378.81;10372398;28;20038;-68
2024/02/08 00:41:03;;;;;;;29.77;13.32;;;;;;;1.85;100.00;100392.81;10370401;28;20026;-67
2024/02/08 00:46:04;;;;;;;16.67;10.52;;;;;;;1.89;100.00;100380.88;10371969;28;20053;-67
2024/02/08 00:51:07;;;;;;;16.90;12.48;;;;;;;1.92;100.00;100385.91;10377010;28;20449;-66
2024/02/08 00:56:09;;;;;;;18.63;12.25;;;;;;;1.96;100.00;100387.25;10380317;28;20034;-67
2024/02/08 01:01:10;;;;;;;32.03;11.25;;;;;;;2.01;100.00;100387.66;10378901;28;20041;-66
2024/02/08 01:06:11;;;;;;;19.00;12.65;;;;;;;2.05;100.00;100383.66;10378139;28;20496;-67
2024/02/08 01:11:12;;;;;;;15.98;11.23;;;;;;;2.15;100.00;100380.06;10379808;28;20062;-67
2024/02/08 01:16:14;;;;;;;12.77;10.80;;;;;;;2.20;100.00;100389.31;10378311;28;20038;-66
2024/02/08 01:21:14;;;;;;;22.63;12.77;;;;;;;2.26;100.00;100394.00;10378654;28;20030;-66
2024/02/08 01:26:15;;;;;;;25.00;10.52;;;;;;;2.38;100.00;100375.03;10378501;28;20121;-67
2024/02/08 01:31:16;;;;;;;19.38;11.93;;;;;;;2.45;100.00;100371.56;10378300;28;20069;-67
2024/02/08 01:36:16;;;;;;;19.35;10.30;;;;;;;2.44;100.00;100361.88;10378081;28;20121;-66
2024/02/08 01:41:16;;;;;;;16.38;10.88;;;;;;;2.43;100.00;100364.72;10376648;28;20117;-66
2024/02/08 01:46:17;;;;;;;17.30;10.40;;;;;;;2.45;100.00;100362.72;10377096;28;20044;-68
2024/02/08 01:51:22;;;;;;;21.05;10.85;;;;;;;2.46;100.00;100367.09;10377021;28;20029;-68
2024/02/08 01:56:22;;;;;;;15.93;9.82;;;;;;;2.50;100.00;100363.94;10376664;28;20026;-67
2024/02/08 02:01:23;;;;;;;21.00;11.35;;;;;;;2.56;100.00;100368.66;10376198;28;20484;-67
2024/02/08 02:06:23;;;;;;;25.75;10.85;;;;;;;2.59;100.00;100364.00;10360403;28;20446;-67
2024/02/08 02:11:29;;;;;;;14.63;10.00;;;;;;;2.62;100.00;100339.63;10378989;28;20141;-68
2024/02/08 02:16:31;;;;;;;24.33;10.32;;;;;;;2.62;100.00;100351.13;10360055;28;20427;-66
2024/02/08 02:21:34;;;;;;;16.13;11.55;;;;;;;2.60;100.00;100350.44;10377190;28;20037;-67
2024/02/08 02:26:35;;;;;;;24.45;10.40;;;;;;;2.59;100.00;100338.09;10377372;28;20038;-65
2024/02/08 02:31:35;;;;;;;22.33;9.98;;;;;;;2.58;100.00;100333.72;10377474;28;20034;-67
2024/02/08 02:36:36;;;;;;;11.90;10.32;;;;;;;2.53;100.00;100326.19;10377282;28;20038;-67
2024/02/08 02:41:37;;;;;;;21.38;10.68;;;;;;;2.51;100.00;100333.53;10375070;28;20034;-66
2024/02/08 02:46:37;;;;;;;16.92;11.02;;;;;;;2.48;100.00;100333.84;10374495;28;20153;-67
2024/02/08 02:51:38;;;;;;;14.68;9.57;;;;;;;2.44;100.00;100327.16;10375381;28;20074;-69
2024/02/08 02:56:40;;;;;;;18.00;10.13;;;;;;;2.39;100.00;100321.44;10375207;28;20116;-66
2024/02/08 03:01:42;;;;;;;15.05;8.75;;;;;;;2.39;100.00;100317.91;10374817;28;20087;-66
2024/02/08 03:06:45;;;;;;;14.32;9.20;;;;;;;2.46;100.00;100305.63;10373440;28;20084;-67
2024/02/08 03:11:45;;;;;;;14.15;9.23;;;;;;;2.53;100.00;100296.78;10373612;28;20054;-67
2024/02/08 03:16:46;;;;;;;21.08;9.50;;;;;;;2.60;100.00;100297.00;10375260;28;20402;-67
2024/02/08 03:21:46;;;;;;;20.65;10.20;;;;;;;2.62;100.00;100286.97;10406495;28;20034;-67
2024/02/08 03:26:47;;;;;;;21.33;10.05;;;;;;;2.72;100.00;100292.19;10373144;28;20530;-67
2024/02/08 03:31:47;;;;;;;17.75;11.02;;;;;;;2.77;100.00;100289.84;10373261;28;20117;-67
2024/02/08 03:36:49;;;;;;;20.60;11.73;;;;;;;2.83;100.00;100310.59;10374576;28;20081;-67
2024/02/08 03:41:49;;;;;;;19.85;11.88;;;;;;;2.86;100.00;100301.44;10374307;28;20030;-67
2024/02/08 03:46:51;;;;;;;10.93;10.02;;;;;;;2.85;100.00;100278.38;10373194;28;20049;-68
2024/02/08 03:51:53;;;;;;;25.35;11.35;;;;;;;2.86;100.00;100262.16;10373886;28;20045;-67
2024/02/08 03:56:54;;;;;;;17.08;11.13;;;;;;;2.88;100.00;100253.97;10373578;28;20030;-67
2024/02/08 04:02:01;;;;;;;26.23;12.23;;;;;;;2.85;100.00;100220.38;10372890;28;20433;-68
2024/02/08 04:07:21;;;;;;;15.63;12.00;;;;;;;2.90;100.00;100230.56;10371751;28;20061;-67
2024/02/08 04:54:59;;;;;;;29.58;14.43;;;;;;;2.65;100.00;100227.84;10379025;28;20136;-67
2024/02/08 05:00:00;;;;;;;24.15;15.55;;;;;;;2.82;100.00;100235.91;10378016;28;20068;-67
2024/02/08 05:05:06;;;;;;;24.33;14.27;;;;;;;2.93;100.00;100231.06;10378638;28;20403;-67
2024/02/08 05:10:08;;;;;;;21.48;14.27;;;;;;;3.03;100.00;100231.78;10380234;28;20057;-67
2024/02/08 05:15:13;;;;;;;29.42;16.45;;;;;;;3.09;100.00;100224.91;10378919;28;20030;-68
2024/02/08 05:20:14;;;;;;;30.75;17.45;;;;;;;3.08;100.00;100211.72;10378886;28;20041;-69
2024/02/08 05:25:15;;;;;;;23.38;14.68;;;;;;;3.08;100.00;100211.72;10378979;28;20041;-68
2024/02/08 05:30:17;;;;;;;26.75;17.30;;;;;;;3.08;100.00;100199.19;10377864;28;20453;-69
2024/02/08 05:35:19;;;;;;;22.88;15.65;;;;;;;3.08;100.00;100190.31;10377192;28;20129;-68
2024/02/08 05:40:20;;;;;;;20.77;15.35;;;;;;;3.17;100.00;100208.03;10377290;28;20421;-69
2024/02/08 05:45:23;;;;;;;26.83;16.50;;;;;;;3.21;100.00;100186.13;10377888;28;20061;-69
2024/02/08 05:50:24;;;;;;;22.70;16.15;;;;;;;3.24;100.00;100198.34;10376815;28;20034;-68
2024/02/08 05:55:25;;;;;;;21.80;15.18;;;;;;;3.19;100.00;100188.16;10377100;28;20367;-67
2024/02/08 06:00:45;;;;;;;19.48;14.60;;;;;;;3.09;100.00;100174.09;10376137;28;20117;-67
2024/02/08 06:05:49;;;;;;;19.10;12.82;;;;;;;3.04;100.00;100165.75;10379668;28;20037;-68
2024/02/08 06:10:52;;;;;;;31.63;14.73;;;;;;;2.94;100.00;100136.50;10393166;28;20046;-67
2024/02/08 06:16:00;;;;;;;37.55;13.70;;;;;;;3.07;100.00;100129.81;10375916;28;20080;-67
2024/02/08 06:21:12;;;;;;;22.42;14.63;;;;;;;3.02;100.00;100112.41;10377232;28;20034;-69
2024/02/08 06:31:19;;;;;;;30.88;14.55;;;;;;;3.04;100.00;100117.59;10374707;28;20037;-68
2024/02/08 06:36:23;;;;;;;33.70;14.88;;;;;;;3.13;100.00;100124.63;10375958;28;20042;-67
2024/02/08 06:41:51;;;;;;;28.67;13.25;;;;;;;3.18;100.00;100124.09;10376950;28;20049;-68
2024/02/08 06:46:56;;;;;;;25.50;12.40;;;;;;;3.14;100.00;100114.75;10374948;28;20358;-67
2024/02/08 07:39:53;;;;;;;29.45;20.10;;;;;;;3.10;100.00;100038.53;10372216;28;20038;-66
2024/02/08 07:44:54;;;;;;;44.08;20.67;;;;;;;3.19;100.00;100053.53;10374290;28;20070;-68
2024/02/08 07:49:57;;;;;;;30.10;19.40;;;;;;;3.21;100.00;100048.84;10379143;28;20041;-67
2024/02/08 08:00:32;;;;;;;29.33;18.55;;;;;;;3.37;100.00;100039.94;10378873;28;20042;-67
2024/02/08 08:05:33;;;;;;;27.63;15.55;;;;;;;3.46;100.00;100022.84;10372163;28;20053;-67
2024/02/08 08:10:34;;;;;;;23.40;15.57;;;;;;;3.45;100.00;100014.00;10372159;28;20053;-69
2024/02/08 08:15:49;;;;;;;41.72;15.82;;;;;;;3.41;100.00;99999.28;10372131;28;20081;-68
2024/02/08 08:20:56;;;;;;;22.40;15.35;;;;;;;3.42;100.00;100006.31;10370791;28;20378;-68
2024/02/08 08:26:00;;;;;;;22.58;13.20;;;;;;;3.47;100.00;99995.06;10373547;28;20037;-68
2024/02/08 08:31:16;;;;;;;37.13;14.93;;;;;;;3.52;100.00;99984.69;10372339;28;20489;-68
2024/02/08 08:36:57;;;;;;;28.73;10.65;;;;;;;3.49;100.00;99969.81;10371785;28;20061;-69
2024/02/08 08:41:46;;;;;;;27.02;12.88;;;;;;;3.59;100.00;99955.38;10367472;28;20073;-67
2024/02/08 08:46:47;;;;;;;18.45;11.27;;;;;;;3.63;100.00;99948.66;10372398;28;20034;-69
2024/02/08 08:51:58;;;;;;;17.30;11.60;;;;;;;3.78;100.00;99948.75;10371821;28;20550;-67
2024/02/08 08:56:59;;;;;;;23.25;10.02;;;;;;;3.67;100.00;99944.59;10371437;28;20038;-69
2024/02/08 09:02:00;;;;;;;11.63;6.65;;;;;;;3.61;100.00;99940.00;10372275;28;20026;-67
2024/02/08 09:07:12;;;;;;;27.77;10.73;;;;;;;3.45;100.00;99938.22;10371318;28;20437;-67
2024/02/08 09:12:12;;;;;;;19.25;9.98;;;;;;;3.44;100.00;99940.03;10376315;28;20058;-68
2024/02/08 09:17:13;;;;;;;13.63;8.05;;;;;;;3.49;100.00;99951.06;10379739;28;20053;-68
2024/02/08 09:22:17;;;;;;;22.90;6.68;;;;;;;3.47;100.00;99950.41;10379999;28;20042;-69
2024/02/08 09:27:19;;;;;;;26.98;8.80;;;;;;;3.50;100.00;99925.97;10362796;28;20042;-66
2024/02/08 09:37:45;;;;;;;0.70;0.70;;;;;;;3.24;100.00;99904.03;10377778;28;20041;-67
2024/02/08 09:42:54;;;;;;;1.00;1.00;;;;;;;3.12;100.00;99887.53;10378412;28;20061;-67
2024/02/08 09:47:59;;;;;;;1.23;1.23;;;;;;;3.19;100.00;99876.97;10376029;28;20034;-67
2024/02/08 09:53:07;;;;;;;0.55;0.55;;;;;;;3.28;100.00;99867.06;10377105;28;20120;-67
2024/02/08 09:58:10;;;;;;;3.83;3.63;;;;;;;3.31;100.00;99853.31;10361610;28;20029;-67
2024/02/08 10:03:31;;;;;;;1.45;1.45;;;;;;;3.23;100.00;99836.31;10376940;28;20038;-65
2024/02/08 10:08:38;;;;;;;1.85;1.85;;;;;;;3.18;100.00;99822.63;10377456;28;20067;-67
2024/02/08 10:13:53;;;;;;;0.60;0.60;;;;;;;3.18;100.00;99840.53;10378460;28;20073;-65
2024/02/08 10:19:01;;;;;;;0.60;0.60;;;;;;;3.31;100.00;99818.53;10375963;28;20447;-66
2024/02/08 10:29:25;;;;;;;0.68;0.68;;;;;;;3.26;100.00;99819.91;10375954;28;20042;-66
2024/02/08 10:34:33;;;;;;;3.67;3.45;;;;;;;3.23;100.00;99803.38;10374771;28;20060;-67
2024/02/08 10:39:41;;;;;;;0.60;0.60;;;;;;;3.17;100.00;99836.19;10405830;28;20267;-68
2024/02/08 10:44:44;;;;;;;0.77;0.77;;;;;;;3.30;100.00;99825.75;10376088;28;20422;-65
2024/02/08 10:49:46;;;;;;;0.90;0.90;;;;;;;3.32;100.00;99826.41;10357159;28;20470;-68
2024/02/08 10:54:53;;;;;;;1.15;1.15;;;;;;;3.37;100.00;99815.16;10373664;28;20037;-67
2024/02/08 10:59:55;;;;;;;2.15;2.15;;;;;;;3.47;100.00;99821.94;10375221;28;20069;-66
2024/02/08 11:05:12;;;;;;;0.63;0.63;;;;;;;3.54;100.00;99851.50;10373338;28;20034;-67
2024/02/08 11:10:20;;;;;;;2.55;2.45;;;;;;;3.48;100.00;99796.03;10358704;28;20444;-66
2024/02/08 11:15:30;;;;;;;1.98;1.95;;;;;;;3.39;100.00;99794.41;10374621;28;20094;-67
2024/02/08 11:20:42;;;;;;;0.75;0.75;;;;;;;3.37;100.00;99764.31;10357585;28;20088;-67
2024/02/08 11:25:45;;;;;;;1.67;1.67;;;;;;;3.22;100.00;99732.16;10357824;28;20113;-67
2024/02/08 11:30:46;;;;;;;2.55;2.45;;;;;;;3.11;100.00;99720.03;10372856;28;20092;-68
2024/02/08 11:35:56;;;;;;;0.88;0.88;;;;;;;3.17;100.00;99713.13;10404655;28;20037;-68
2024/02/08 11:41:09;;;;;;;0.75;0.75;;;;;;;3.13;100.00;99688.59;10372581;28;20034;-68
2024/02/08 11:46:18;;;;;;;0.80;0.80;;;;;;;3.08;100.00;99671.41;10371556;28;20026;-69
2024/02/08 11:51:22;;;;;;;1.55;1.55;;;;;;;2.94;100.00;99659.66;10373564;28;20037;-67
2024/02/08 11:56:22;;;;;;;0.70;0.70;;;;;;;2.87;100.00;99643.50;10372776;28;20049;-67
2024/02/08 12:01:25;;;;;;;0.68;0.68;;;;;;;2.95;100.00;99638.06;10354694;28;20037;-69
2024/02/08 12:06:26;;;;;;;0.50;0.50;;;;;;;2.85;100.00;99634.81;10372144;28;20461;-69
2024/02/08 12:11:32;;;;;;;0.60;0.60;;;;;;;2.79;100.00;99628.34;10372069;28;20065;-68
2024/02/08 12:16:38;;;;;;;0.70;0.70;;;;;;;2.73;100.00;99625.53;10370797;28;20073;-67
2024/02/08 12:21:39;;;;;;;;;;;;;;;2.77;100.00;99600.94;10371951;28;20034;-68
2024/02/08 12:26:40;;;;;;;0.80;0.80;;;;;;;2.75;100.00;99588.78;10372162;28;19913;-68
2024/02/08 12:31:41;;;;;;;0.80;0.80;;;;;;;2.63;100.00;99591.03;10353952;28;20380;-68
2024/02/08 12:36:45;;;;;;;1.58;1.58;;;;;;;2.59;100.00;99572.88;10370863;28;20032;-71
2024/02/08 12:41:45;;;;;;;0.52;0.52;;;;;;;2.46;100.00;99552.09;10372723;28;20446;-68
2024/02/08 12:46:49;;;;;;;0.90;0.90;;;;;;;2.39;100.00;99535.91;10360565;28;20029;-69
2024/02/08 12:51:50;;;;;;;0.60;0.60;;;;;;;-145.97;100.00;64257.31;10378723;28;20126;-70
2024/02/08 12:56:53;;;;;;;0.73;0.73;;;;;;;2.45;100.00;99519.19;10361773;28;20022;-70
2024/02/08 13:01:53;;;;;;;0.80;0.80;;;;;;;2.46;100.00;99515.53;10362835;28;20382;-70
2024/02/08 13:06:55;;;;;;;0.80;0.80;;;;;;;2.39;100.00;99466.47;10378769;28;20034;-69
2024/02/08 13:12:17;;;;;;;1.58;1.52;;;;;;;2.38;100.00;99475.50;10378297;28;20088;-69
2024/02/08 13:17:18;;;;;;;0.80;0.80;;;;;;;2.51;100.00;99481.06;10377817;28;20110;-69
2024/02/08 13:22:24;;;;;;;0.63;0.63;;;;;;;2.48;100.00;99456.53;10360797;28;20045;-68
2024/02/08 13:27:25;;;;;;;3.72;1.85;;;;;;;2.44;100.00;99441.91;10379317;28;20034;-69
2024/02/08 13:32:30;;;;;;;2.83;2.72;;;;;;;2.26;100.00;99416.31;10379223;28;20374;-69
2024/02/08 13:37:31;;;;;;;0.70;0.70;;;;;;;2.22;100.00;99419.53;10378179;28;20400;-68
2024/02/08 13:42:32;;;;;;;0.80;0.80;;;;;;;2.31;100.00;99378.41;10376590;28;20034;-70
2024/02/08 13:47:37;;;;;;;0.80;0.80;;;;;;;2.43;100.00;99363.59;10360102;28;20033;-70
2024/02/08 13:52:38;;;;;;;0.70;0.70;;;;;;;2.42;100.00;99340.53;10376745;28;20088;-69
2024/02/08 13:57:38;;;;;;;0.63;0.63;;;;;;;2.44;100.00;99327.00;10408385;28;20034;-70
2024/02/08 14:02:39;;;;;;;0.90;0.90;;;;;;;2.40;100.00;99321.22;10375857;28;20109;-68
2024/02/08 14:07:42;;;;;;;0.70;0.70;;;;;;;2.40;100.00;99299.84;10377397;28;20041;-70
2024/02/08 14:12:45;;;;;;;1.20;1.20;;;;;;;2.34;100.00;99284.53;10377831;28;20403;-68
2024/02/08 14:17:54;;;;;;;0.70;0.70;;;;;;;2.34;100.00;99279.19;10359062;28;20049;-71
2024/02/08 14:22:59;;;;;;;0.82;0.82;;;;;;;2.31;100.00;99271.56;10375971;28;20125;-71
2024/02/08 14:28:00;;;;;;;0.98;0.98;;;;;;;2.30;100.00;99261.91;10391995;28;20040;-70
2024/02/08 14:33:01;;;;;;;0.68;0.68;;;;;;;2.30;100.00;99254.72;10374542;28;20045;-70
2024/02/08 14:38:01;;;;;;;0.77;0.77;;;;;;;2.28;100.00;99248.72;10376154;28;20037;-69
2024/02/08 14:43:06;;;;;;;0.60;0.60;;;;;;;2.30;100.00;99241.34;10375030;28;20032;-71
2024/02/08 14:48:09;;;;;;;4.22;1.52;;;;;;;2.30;100.00;99232.53;10375082;28;20221;-70
2024/02/08 14:53:10;;;;;;;0.73;0.73;;;;;;;2.28;100.00;99221.19;10375131;28;20034;-70
2024/02/08 14:58:32;;;;;;;2.03;2.03;;;;;;;2.35;100.00;99200.72;10374737;28;20038;-69
2024/02/08 15:03:36;;;;;;;0.70;0.70;;;;;;;2.31;100.00;99196.78;10373191;28;20123;-71
2024/02/08 15:08:46;;;;;;;0.70;0.70;;;;;;;2.29;100.00;99190.78;10372579;28;20037;-69
2024/02/08 15:13:49;;;;;;;0.60;0.60;;;;;;;2.29;100.00;99180.09;10373597;28;20073;-67
2024/02/08 15:18:53;;;;;;;0.98;0.98;;;;;;;2.23;100.00;99180.84;10374733;28;20367;-68
2024/02/08 15:34:58;;;;;;;0.80;0.80;;;;;;;2.22;100.00;99160.50;10373050;28;20042;-69
2024/02/08 15:40:16;;;;;;;3.78;3.50;;;;;;;2.28;100.00;99167.75;10359799;28;20072;-70
2024/02/08 15:45:16;;;;;;;0.50;0.50;;;;;;;2.38;100.00;99170.13;10371381;28;20463;-69
2024/02/08 15:50:20;;;;;;;0.68;0.68;;;;;;;2.42;100.00;99150.03;10372381;28;20034;-70
2024/02/08 15:55:25;;;;;;;0.68;0.68;;;;;;;2.41;100.00;99140.38;10373923;28;20034;-70
2024/02/08 16:01:02;;;;;;;0.90;0.90;;;;;;;2.39;100.00;99145.06;10374288;28;20045;-70
2024/02/08 16:05:56;;;;;;;0.90;0.90;;;;;;;2.35;100.00;99131.28;10372755;28;20065;-69
2024/02/08 16:11:05;;;;;;;1.67;1.67;;;;;;;2.32;100.00;99127.13;10373164;28;20058;-68
2024/02/08 16:16:08;;;;;;;0.80;0.80;;;;;;;2.51;100.00;99144.41;10373323;28;20050;-70
2024/02/08 16:21:16;;;;;;;0.75;0.75;;;;;;;2.39;100.00;99100.47;10377060;28;20519;-69
2024/02/08 16:26:18;;;;;;;1.67;1.67;;;;;;;2.39;100.00;99080.97;10381738;28;20053;-71
2024/02/08 16:31:24;;;;;;;0.90;0.90;;;;;;;2.42;100.00;99072.56;10382248;28;20038;-71
2024/02/08 16:41:34;;;;;;;0.70;0.70;;;;;;;2.50;100.00;99070.63;10380235;28;20401;-71
2024/02/08 16:46:37;;;;;;;0.77;0.77;;;;;;;2.53;100.00;99067.56;10380421;28;20113;-70
2024/02/08 16:51:38;;;;;;;1.73;1.38;;;;;;;2.52;100.00;99067.72;10380403;28;20049;-70
2024/02/08 16:56:39;;;;;;;0.80;0.80;;;;;;;2.58;100.00;99050.94;10394846;28;20050;-69
2024/02/08 17:01:52;;;;;;;0.50;0.50;;;;;;;2.64;100.00;99047.50;10378722;28;20061;-71
2024/02/08 17:06:58;;;;;;;0.63;0.63;;;;;;;2.60;100.00;99040.06;10379311;28;20041;-69
2024/02/08 17:11:58;;;;;;;0.77;0.77;;;;;;;2.58;100.00;99034.91;10378661;28;20061;-69
2024/02/08 17:17:06;;;;;;;0.70;0.70;;;;;;;2.61;100.00;99044.41;10377195;28;20267;-70
2024/02/08 17:22:18;;;;;;;2.63;2.53;;;;;;;2.61;100.00;99039.88;10379138;28;20057;-70
2024/02/08 17:27:26;;;;;;;0.70;0.70;;;;;;;2.62;100.00;99027.38;10378984;28;20042;-69
2024/02/08 17:32:26;;;;;;;2.17;2.05;;;;;;;2.68;100.00;99018.56;10377642;28;20053;-69
2024/02/08 17:37:44;;;;;;;0.55;0.55;;;;;;;2.72;100.00;99020.66;10377529;28;20042;-70
2024/02/08 17:42:58;;;;;;;0.50;0.50;;;;;;;2.79;100.00;99010.03;10378524;28;20030;-71
2024/02/08 17:47:59;;;;;;;0.70;0.70;;;;;;;2.89;100.00;99001.66;10377449;28;20358;-70
2024/02/08 17:53:03;;;;;;;0.60;0.60;;;;;;;2.89;100.00;98996.31;10408910;28;20061;-69
2024/02/08 17:58:12;;;;;;;0.50;0.50;;;;;;;2.94;100.00;98983.19;10377437;28;20042;-70
2024/02/08 18:03:15;;;;;;;0.80;0.80;;;;;;;2.95;100.00;98974.97;10377822;28;20451;-70
2024/02/08 18:08:16;;;;;;;0.70;0.70;;;;;;;3.01;100.00;98976.03;10376635;28;20446;-69
2024/02/08 18:13:17;;;;;;;0.70;0.70;;;;;;;3.05;100.00;98974.63;10376358;28;20399;-69
2024/02/08 18:18:19;;;;;;;3.22;2.45;;;;;;;3.14;100.00;98975.31;10377544;28;20049;-71
2024/02/08 18:23:20;;;;;;;0.60;0.60;;;;;;;3.19;100.00;98967.50;10382256;28;20032;-70
2024/02/08 18:28:21;;;;;;;0.60;0.60;;;;;;;3.21;100.00;98971.63;10366447;28;20121;-72
2024/02/08 18:33:26;;;;;;;0.80;0.80;;;;;;;3.22;100.00;98962.59;10384266;28;20053;-70
2024/02/08 18:38:27;;;;;;;0.50;0.50;;;;;;;3.24;100.00;98960.53;10376807;28;20084;-70
2024/02/08 18:43:27;;;;;;;0.65;0.65;;;;;;;3.26;100.00;98950.47;10376080;28;20119;-70
2024/02/08 18:48:34;;;;;;;0.80;0.80;;;;;;;3.28;100.00;98933.38;10376426;28;20087;-72
2024/02/08 18:53:38;;;;;;;1.13;1.13;;;;;;;3.27;100.00;98932.56;10375550;28;20037;-72
2024/02/08 18:58:40;;;;;;;1.45;1.38;;;;;;;3.23;100.00;98931.31;10375354;28;20468;-73
2024/02/08 19:03:41;;;;;;;0.73;0.73;;;;;;;3.29;100.00;98909.13;10376979;28;20167;-72
2024/02/08 19:08:41;;;;;;;0.60;0.60;;;;;;;3.38;100.00;98913.28;10373638;28;20077;-72
2024/02/08 19:13:44;;;;;;;0.60;0.60;;;;;;;3.50;100.00;98905.50;10376450;28;20058;-71
2024/02/08 19:18:46;;;;;;;0.60;0.60;;;;;;;3.45;100.00;98895.41;10406720;28;20048;-70
2024/02/08 19:23:48;;;;;;;0.60;0.60;;;;;;;3.39;100.00;98898.88;10372726;28;20037;-73
2024/02/08 19:28:50;;;;;;;0.70;0.70;;;;;;;3.49;100.00;98909.19;10405431;28;20042;-71
2024/02/08 19:33:52;;;;;;;0.70;0.70;;;;;;;3.54;100.00;98896.03;10389110;28;20484;-70
2024/02/08 19:38:53;;;;;;;0.70;0.70;;;;;;;3.53;100.00;98886.34;10388780;28;20034;-71
2024/02/08 19:43:57;;;;;;;2.45;2.35;;;;;;;3.62;100.00;98881.66;10372357;28;20049;-71
2024/02/08 19:49:01;;;;;;;2.75;2.65;;;;;;;3.69;100.00;98895.88;10373622;28;20049;-74
2024/02/08 19:54:08;;;;;;;2.38;2.28;;;;;;;3.73;100.00;98867.66;10372576;28;20034;-73
2024/02/08 19:59:11;;;;;;;0.60;0.60;;;;;;;3.87;100.00;98879.25;10373475;28;20030;-74
2024/02/08 20:04:14;;;;;;;1.77;1.67;;;;;;;3.88;100.00;98868.31;10404020;28;20050;-73
2024/02/08 20:09:17;;;;;;;1.30;1.30;;;;;;;3.91;100.00;98853.69;10373636;28;20037;-73
2024/02/08 20:14:21;;;;;;;0.52;0.52;;;;;;;4.04;100.00;98847.53;10374182;28;20065;-73
2024/02/08 20:19:21;;;;;;;0.93;0.93;;;;;;;4.10;100.00;98852.88;10371901;28;20112;-71
2024/02/08 20:24:23;;;;;;;0.80;0.80;;;;;;;4.26;100.00;98845.47;10371823;28;20145;-72
2024/02/08 20:29:28;;;;;;;0.85;0.85;;;;;;;4.33;100.00;98839.06;10372623;28;20505;-74
2024/02/08 20:34:31;;;;;;;1.17;1.17;;;;;;;4.42;100.00;98820.91;10373381;28;20443;-71
2024/02/08 20:39:38;;;;;;;9.50;6.82;;;;;;;4.56;100.00;98819.88;10372447;28;20034;-73
2024/02/08 20:44:44;;;;;;;0.60;0.60;;;;;;;4.58;100.00;98812.41;10373413;28;20092;-73
2024/02/08 20:49:45;;;;;;;0.98;0.98;;;;;;;4.72;100.00;98818.56;10372385;28;20030;-74
2024/02/08 20:54:48;;;;;;;3.30;2.08;;;;;;;4.76;100.00;98797.53;10374038;28;20033;-74
2024/02/08 20:59:54;;;;;;;1.73;1.73;;;;;;;4.87;100.00;98810.28;10375505;28;20065;-75
2024/02/08 21:04:55;;;;;;;2.30;2.10;;;;;;;4.97;100.00;98801.78;10375897;28;20044;-72
2024/02/08 21:09:55;;;;;;;1.08;1.08;;;;;;;5.04;100.00;98795.38;10380099;28;20274;-73
2024/02/08 21:14:58;;;;;;;5.05;2.03;;;;;;;5.09;100.00;98798.22;10380309;28;20429;-72
2024/02/08 21:19:59;;;;;;;0.68;0.68;;;;;;;5.23;100.00;98795.47;10394185;28;20499;-73
2024/02/08 21:25:00;;;;;;;2.35;2.30;;;;;;;5.34;100.00;98787.56;10361983;28;20045;-71
2024/02/08 21:30:05;;;;;;;3.17;3.08;;;;;;;5.37;100.00;98772.91;10378808;28;20109;-73
2024/02/08 21:35:06;;;;;;;6.23;5.60;;;;;;;5.47;100.00;98777.78;10409130;28;20049;-71
2024/02/08 21:40:07;;;;;;;1.15;1.15;;;;;;;5.64;100.00;98776.22;10377201;28;20030;-71
2024/02/08 21:45:12;;;;;;;1.10;1.10;;;;;;;5.71;100.00;98770.78;10378599;28;20509;-71
2024/02/08 21:50:12;;;;;;;1.05;1.05;;;;;;;5.88;100.00;98760.34;10392995;28;20049;-71
2024/02/08 21:55:15;;;;;;;0.65;0.65;;;;;;;6.02;100.00;98753.84;10378830;28;20049;-72
2024/02/08 22:00:16;;;;;;;0.60;0.60;;;;;;;6.20;100.00;98745.81;10379066;28;20030;-71
2024/02/08 22:05:20;;;;;;;1.27;1.27;;;;;;;6.23;100.00;98745.38;10382445;28;20060;-72
2024/02/08 22:10:20;;;;;;;1.52;1.52;;;;;;;6.74;100.00;98735.28;10382635;28;20034;-73
2024/02/08 22:15:21;;;;;;;1.55;1.38;;;;;;;7.22;100.00;98721.00;10382734;28;20458;-71
2024/02/08 22:20:21;;;;;;;3.30;2.88;;;;;;;7.95;100.00;98709.06;10381467;28;20088;-71
2024/02/08 22:25:22;;;;;;;0.50;0.50;;;;;;;8.49;100.00;98696.25;10393647;28;20034;-71
2024/02/08 22:30:23;;;;;;;0.95;0.95;;;;;;;8.85;100.00;98703.19;10377292;28;20041;-72
2024/02/08 22:35:24;;;;;;;1.52;1.48;;;;;;;9.04;100.00;98689.50;10376519;28;20045;-71
2024/02/08 22:40:25;;;;;;;3.95;3.80;;;;;;;9.20;100.00;98674.41;10376134;28;20034;-70
2024/02/08 22:45:25;;;;;;;3.70;3.35;;;;;;;9.30;100.00;98683.50;10376309;28;20086;-71
2024/02/08 22:50:26;;;;;;;2.97;2.78;;;;;;;9.35;100.00;98663.88;10374633;28;20037;-71
2024/02/08 22:55:28;;;;;;;0.75;0.75;;;;;;;9.43;100.00;98662.63;10376278;28;20033;-71
2024/02/08 23:05:30;;;;;;;1.10;1.10;;;;;;;9.46;100.00;98646.75;10375430;28;20069;-71
2024/02/08 23:10:32;;;;;;;1.40;1.40;;;;;;;9.46;100.00;98629.72;10374564;28;20041;-71
2024/02/08 23:15:33;;;;;;;0.70;0.70;;;;;;;9.49;100.00;98624.66;10357905;28;20401;-70
2024/02/08 23:20:33;;;;;;;4.63;4.40;;;;;;;9.53;100.00;98614.97;10373908;28;20030;-69
2024/02/08 23:25:37;;;;;;;0.40;0.40;;;;;;;9.53;100.00;98601.47;10375222;28;20030;-72
2024/02/08 23:30:43;;;;;;;0.55;0.55;;;;;;;9.51;100.00;98592.00;10374381;28;20038;-72
2024/02/08 23:35:44;;;;;;;8.73;2.77;;;;;;;9.52;100.00;98596.31;10374302;28;20034;-71
2024/02/08 23:40:45;;;;;;;4.00;3.45;;;;;;;9.50;100.00;98583.06;10373451;28;20484;-70
2024/02/08 23:45:45;;;;;;;3.85;3.55;;;;;;;9.51;100.00;98578.50;10374905;28;20052;-71
2024/02/08 23:50:46;;;;;;;5.05;2.30;;;;;;;9.52;100.00;98572.81;10372341;28;20038;-71
2024/02/08 23:55:47;;;;;;;3.08;2.88;;;;;;;9.51;100.00;98559.56;10373662;28;20034;-71
